Lahore, Pakistan
Current Conditions -  °F | °C
As of 11:55 PM on Wednesday 26 Nov 2014 (Local Time) from OPLA Reporting Station
Smoke Smoke  
Wind Chill: 59°   Ceiling: Unl
Heat Index: 59°   Visibility: 1.5mi
Dew Point: 50°   Wind: 0mph
Humidity: 72%   Direction: NA
Pressure: NA   Gusts: NA
Location:  31.56°N, 74.35°E
Report Text: OPLA 261855Z 00000KT 2500 FU NSC 15/10 Q1010/A29.85 BECMG 2000
Loading
Personal Weather Stations






























Interactive Weather Map New forecast layout! Learn more

10-Day Weather Forecast

Advertisements
Track Severe Weather on mobile